Time;durP1;ratioP1;P1;durP2;ratioP2;P2;SDS_P1;SDS_P2;PMS_P1;PMS_P2;Temp;Humidity;BMP_temperature;BMP_pressure;BME280_temperature;BME280_humidity;BME280_pressure;Samples;Min_cycle;Max_cycle;Signal;HPM_P1;HPM_P2
2022/06/05 00:01:19;;;;;;;6.13;5.53;;;15.40;71.10;;;;;;5053259;28;20539;-61
2022/06/05 00:03:53;;;;;;;8.83;5.90;;;15.40;72.30;;;;;;5053063;28;20428;-58
2022/06/05 00:06:27;;;;;;;8.00;6.07;;;15.40;73.40;;;;;;5052878;28;20460;-58
2022/06/05 00:09:17;;;;;;;6.97;6.27;;;15.30;74.20;;;;;;5052564;28;20865;-59
2022/06/05 00:11:49;;;;;;;10.67;5.60;;;15.30;75.20;;;;;;5053195;28;20558;-60
2022/06/05 00:14:17;;;;;;;6.50;5.90;;;15.20;76.20;;;;;;5052962;28;20979;-59
2022/06/05 00:16:45;;;;;;;7.47;6.10;;;15.20;77.30;;;;;;5053172;28;20441;-59
2022/06/05 00:19:13;;;;;;;8.00;5.30;;;15.10;78.30;;;;;;5052888;28;20472;-60
2022/06/05 00:21:40;;;;;;;8.43;5.70;;;15.10;79.70;;;;;;5052756;28;20444;-59
2022/06/05 00:24:08;;;;;;;7.53;6.43;;;15.00;80.40;;;;;;5052836;28;20447;-58
2022/06/05 00:26:48;;;;;;;9.30;6.10;;;15.00;81.50;;;;;;5057215;28;20533;-59
2022/06/05 00:29:28;;;;;;;7.67;6.30;;;14.90;82.60;;;;;;5070936;22;20584;-60
2022/06/05 00:32:07;;;;;;;7.30;6.17;;;14.90;83.50;;;;;;5036908;28;20525;-61
2022/06/05 00:34:34;;;;;;;6.83;6.23;;;14.80;84.60;;;;;;5037154;28;20460;-60
2022/06/05 00:37:16;;;;;;;9.67;7.07;;;14.80;85.40;;;;;;5037092;28;20499;-61
2022/06/05 00:39:52;;;;;;;7.40;6.70;;;14.70;86.30;;;;;;5036922;28;20496;-61
2022/06/05 00:42:24;;;;;;;7.87;6.43;;;14.70;87.40;;;;;;5036712;28;20491;-60
2022/06/05 00:44:54;;;;;;;7.87;6.50;;;14.60;88.70;;;;;;5036836;28;20421;-59
2022/06/05 00:47:26;;;;;;;7.00;6.20;;;14.60;88.90;;;;;;5036522;28;20969;-60
2022/06/05 00:49:57;;;;;;;7.17;6.47;;;14.60;89.70;;;;;;5036316;28;20464;-60
2022/06/05 00:52:27;;;;;;;9.53;6.90;;;14.50;90.10;;;;;;5036352;28;20536;-60
2022/06/05 00:54:55;;;;;;;6.77;6.13;;;14.50;90.50;;;;;;5036188;28;20477;-60
2022/06/05 00:57:23;;;;;;;7.60;6.83;;;14.50;90.80;;;;;;5036431;28;20492;-61
2022/06/05 00:59:53;;;;;;;7.40;6.60;;;14.50;91.10;;;;;;5036390;28;20543;-60
2022/06/05 01:02:22;;;;;;;8.30;7.10;;;14.40;91.40;;;;;;5036361;28;20446;-60
2022/06/05 01:04:51;;;;;;;8.50;7.20;;;14.40;91.90;;;;;;5036291;28;20814;-60
2022/06/05 01:07:19;;;;;;;9.83;7.00;;;14.40;92.20;;;;;;5036733;28;20483;-60
2022/06/05 01:09:49;;;;;;;9.37;8.10;;;14.30;92.50;;;;;;5036578;28;20496;-61
2022/06/05 01:12:32;;;;;;;7.87;7.10;;;14.30;93.00;;;;;;5036446;28;20449;-62
2022/06/05 01:15:10;;;;;;;8.43;7.63;;;14.30;93.30;;;;;;5036373;28;20523;-61
2022/06/05 01:17:45;;;;;;;8.33;7.37;;;14.20;93.60;;;;;;5036305;28;20441;-60
2022/06/05 01:20:20;;;;;;;10.00;7.93;;;14.20;93.80;;;;;;5036204;28;20968;-61
2022/06/05 01:23:10;;;;;;;10.60;7.37;;;14.10;94.20;;;;;;5036409;28;20834;-60
2022/06/05 01:26:08;;;;;;;8.30;7.47;;;14.10;94.50;;;;;;5030096;28;20449;-59
2022/06/05 01:28:40;;;;;;;7.97;7.17;;;14.10;94.90;;;;;;5037340;28;20504;-61
2022/06/05 01:31:13;;;;;;;11.27;7.80;;;14.00;95.20;;;;;;5036478;28;20496;-61
2022/06/05 01:33:50;;;;;;;10.23;8.00;;;14.00;95.80;;;;;;5036997;28;20867;-62
2022/06/05 01:36:28;;;;;;;10.53;7.87;;;14.00;95.80;;;;;;5046061;28;20418;-60
2022/06/05 01:39:00;;;;;;;8.67;7.77;;;14.00;96.10;;;;;;5048029;28;20496;-60
2022/06/05 01:41:33;;;;;;;7.97;7.23;;;13.90;96.20;;;;;;5050400;28;20429;-60
2022/06/05 01:44:06;;;;;;;8.43;7.63;;;13.90;96.40;;;;;;5048844;28;20475;-61
2022/06/05 01:46:37;;;;;;;10.07;8.27;;;13.90;96.70;;;;;;5046918;28;20422;-60
2022/06/05 01:49:11;;;;;;;8.20;7.40;;;13.90;96.90;;;;;;5046303;28;20826;-60
2022/06/05 01:51:47;;;;;;;8.47;7.67;;;13.80;97.10;;;;;;5045501;28;20417;-60
2022/06/05 01:54:20;;;;;;;9.60;7.70;;;13.80;97.30;;;;;;5042617;28;20487;-60
2022/06/05 01:56:52;;;;;;;11.30;8.53;;;13.80;97.60;;;;;;5040482;28;20509;-60
2022/06/05 01:59:24;;;;;;;11.03;7.93;;;13.80;97.80;;;;;;5036844;28;20465;-59
2022/06/05 02:01:56;;;;;;;9.30;8.30;;;13.80;98.00;;;;;;5038051;28;20422;-60
2022/06/05 02:04:31;;;;;;;9.17;7.40;;;13.70;98.10;;;;;;5036689;28;20430;-59
2022/06/05 02:07:02;;;;;;;7.87;7.17;;;13.70;98.20;;;;;;5036037;28;20476;-60
2022/06/05 02:09:34;;;;;;;9.20;8.27;;;13.70;98.50;;;;;;5035821;28;20921;-57
2022/06/05 02:12:06;;;;;;;9.10;8.20;;;13.60;98.60;;;;;;5035837;28;20964;-60
2022/06/05 02:14:33;;;;;;;10.63;8.50;;;13.60;98.80;;;;;;5035389;28;20899;-59
2022/06/05 02:17:01;;;;;;;11.40;7.87;;;13.60;98.90;;;;;;5035384;28;20793;-57
2022/06/05 02:19:29;;;;;;;9.40;7.93;;;13.60;99.20;;;;;;5034927;28;20519;-60
2022/06/05 02:22:02;;;;;;;9.67;8.67;;;13.50;99.30;;;;;;5035118;28;20445;-60
2022/06/05 02:24:29;;;;;;;8.47;7.50;;;13.50;99.40;;;;;;5035074;28;20479;-60
2022/06/05 02:26:59;;;;;;;9.77;8.30;;;13.50;99.60;;;;;;5035113;28;20503;-60
2022/06/05 02:29:28;;;;;;;10.20;9.30;;;13.50;99.80;;;;;;5034464;28;20581;-60
2022/06/05 02:32:14;;;;;;;8.03;7.30;;;13.40;99.90;;;;;;5034696;28;20475;-59
2022/06/05 02:34:50;;;;;;;9.40;8.50;;;13.40;99.90;;;;;;5034824;28;20465;-60
2022/06/05 02:37:32;;;;;;;8.43;7.63;;;13.40;99.90;;;;;;5034827;28;20426;-60
2022/06/05 02:40:08;;;;;;;9.27;8.30;;;13.40;99.90;;;;;;5034250;28;20479;-59
2022/06/05 02:42:38;;;;;;;11.50;8.63;;;13.40;99.90;;;;;;5034315;28;20516;-60
2022/06/05 02:45:19;;;;;;;9.50;8.60;;;13.30;99.90;;;;;;5034557;28;20476;-60
2022/06/05 02:47:52;;;;;;;9.13;8.33;;;13.30;99.90;;;;;;5034095;28;20430;-60
2022/06/05 02:50:26;;;;;;;9.17;8.20;;;13.30;99.90;;;;;;5033674;28;20560;-59
2022/06/05 02:53:00;;;;;;;13.10;9.00;;;13.30;99.90;;;;;;5034304;28;20869;-60
2022/06/05 02:55:28;;;;;;;10.43;7.80;;;13.30;99.90;;;;;;5034249;28;20891;-60
2022/06/05 02:57:55;;;;;;;9.60;8.60;;;13.30;99.90;;;;;;5034190;28;20495;-60
2022/06/05 03:00:26;;;;;;;9.67;8.70;;;13.20;99.90;;;;;;5034231;28;20466;-59
2022/06/05 03:05:40;;;;;;;10.27;9.00;;;13.20;99.90;;;;;;5034058;28;20544;-60
2022/06/05 03:08:10;;;;;;;9.67;8.77;;;13.20;99.90;;;;;;5033957;28;20476;-61
2022/06/05 03:10:38;;;;;;;9.20;8.30;;;13.20;99.90;;;;;;5033959;28;20450;-60
2022/06/05 03:13:05;;;;;;;10.33;9.33;;;13.20;99.90;;;;;;5033826;28;20507;-60
2022/06/05 03:15:34;;;;;;;8.93;8.03;;;13.20;99.90;;;;;;5033618;28;20476;-60
2022/06/05 03:18:02;;;;;;;10.57;8.20;;;13.20;99.90;;;;;;5033555;28;20996;-60
2022/06/05 03:20:29;;;;;;;11.27;9.00;;;13.20;99.90;;;;;;5033689;28;20449;-60
2022/06/05 03:22:56;;;;;;;11.10;8.67;;;13.20;99.90;;;;;;5035546;28;20450;-60
2022/06/05 03:25:25;;;;;;;8.80;7.90;;;13.20;99.90;;;;;;5036171;28;20794;-59
2022/06/05 03:27:53;;;;;;;10.00;8.37;;;13.20;99.90;;;;;;5036490;28;20485;-60
2022/06/05 03:30:21;;;;;;;13.13;8.87;;;13.20;99.90;;;;;;5036207;28;20481;-60
2022/06/05 03:32:50;;;;;;;11.07;8.90;;;13.20;99.90;;;;;;5034146;28;20503;-60
2022/06/05 03:35:17;;;;;;;9.13;8.23;;;13.20;99.90;;;;;;5033665;28;20473;-62
2022/06/05 03:37:45;;;;;;;10.03;8.13;;;13.20;99.90;;;;;;5033758;28;20471;-61
2022/06/05 03:40:15;;;;;;;9.80;8.80;;;13.20;99.90;;;;;;5033501;28;20903;-60
2022/06/05 03:42:43;;;;;;;10.03;8.67;;;13.20;99.90;;;;;;5033206;28;20430;-60
2022/06/05 03:45:13;;;;;;;10.27;8.20;;;13.20;99.90;;;;;;5033560;28;20838;-60
2022/06/05 03:47:40;;;;;;;8.70;7.90;;;13.20;99.90;;;;;;5033590;28;20485;-61
2022/06/05 03:50:11;;;;;;;10.27;9.23;;;13.30;99.90;;;;;;5033278;28;20493;-60
2022/06/05 03:52:38;;;;;;;9.10;8.20;;;13.30;99.90;;;;;;5033713;28;20491;-60
2022/06/05 03:55:06;;;;;;;8.50;7.70;;;13.50;99.90;;;;;;5033205;28;20531;-60
2022/06/05 03:57:34;;;;;;;10.43;8.03;;;14.00;99.90;;;;;;5033327;28;20809;-60
2022/06/05 04:00:01;;;;;;;8.50;7.70;;;14.50;99.90;;;;;;5036202;28;20519;-61
2022/06/05 04:02:29;;;;;;;8.07;7.30;;;15.00;98.90;;;;;;5036092;28;20499;-60
2022/06/05 04:04:56;;;;;;;11.30;7.37;;;15.40;97.70;;;;;;5032980;28;20469;-60
2022/06/05 04:09:52;;;;;;;7.80;6.40;;;16.20;94.40;;;;;;5132558;27;20574;-60
2022/06/05 04:12:19;;;;;;;8.20;6.70;;;16.50;93.40;;;;;;5131863;27;20561;-61
2022/06/05 04:14:47;;;;;;;7.37;6.67;;;16.70;92.10;;;;;;5131542;27;20447;-60
2022/06/05 04:17:14;;;;;;;8.70;6.30;;;16.90;91.00;;;;;;5131700;27;20444;-60
2022/06/05 04:19:41;;;;;;;7.63;6.03;;;17.00;90.00;;;;;;5130228;27;20473;-60
2022/06/05 04:22:09;;;;;;;6.30;5.60;;;17.20;88.60;;;;;;5131773;27;20471;-60
2022/06/05 04:24:36;;;;;;;6.43;5.83;;;17.50;86.30;;;;;;5131252;27;20502;-61
2022/06/05 04:27:05;;;;;;;6.93;5.93;;;17.70;84.20;;;;;;5131582;27;20441;-60
2022/06/05 04:29:33;;;;;;;6.73;6.13;;;18.00;81.00;;;;;;5131030;27;20985;-60
2022/06/05 04:32:00;;;;;;;5.87;5.40;;;18.20;79.00;;;;;;5130999;27;20940;-61
2022/06/05 04:34:28;;;;;;;5.73;5.33;;;18.50;76.80;;;;;;5130212;27;20465;-60
2022/06/05 04:36:55;;;;;;;8.67;5.80;;;18.70;73.80;;;;;;5131366;27;20441;-60
2022/06/05 04:39:23;;;;;;;6.37;5.77;;;18.80;71.50;;;;;;5131617;27;20460;-60
2022/06/05 04:41:50;;;;;;;6.47;5.67;;;18.90;70.20;;;;;;5131261;27;20507;-60
2022/06/05 04:44:19;;;;;;;8.33;5.57;;;19.00;69.00;;;;;;5132219;27;20850;-60
2022/06/05 04:46:46;;;;;;;6.27;5.67;;;19.00;67.50;;;;;;5135736;27;20596;-60
2022/06/05 04:49:15;;;;;;;6.30;5.70;;;19.10;66.80;;;;;;5131996;28;20533;-60
2022/06/05 04:51:42;;;;;;;5.53;5.10;;;19.20;65.80;;;;;;5131052;27;20447;-59
2022/06/05 04:54:12;;;;;;;5.70;5.00;;;19.30;64.80;;;;;;5118415;27;20466;-60
2022/06/05 04:56:39;;;;;;;6.07;5.47;;;19.30;64.10;;;;;;5110395;28;20549;-60
2022/06/05 04:59:06;;;;;;;7.13;5.73;;;19.40;63.40;;;;;;5109929;28;20496;-61
2022/06/05 05:01:37;;;;;;;6.73;6.17;;;19.40;62.60;;;;;;5109921;28;20490;-60
2022/06/05 05:04:06;;;;;;;6.23;5.67;;;19.40;62.50;;;;;;5109988;28;20781;-60
2022/06/05 05:06:34;;;;;;;6.47;5.97;;;19.50;61.80;;;;;;5109945;28;20592;-60
2022/06/05 05:09:02;;;;;;;5.33;4.83;;;19.60;61.30;;;;;;5109787;28;20481;-60
2022/06/05 05:11:30;;;;;;;6.10;5.47;;;19.70;60.90;;;;;;5117939;28;20506;-59
2022/06/05 05:13:58;;;;;;;6.20;5.60;;;19.80;60.30;;;;;;5113074;28;20517;-59
2022/06/05 05:16:27;;;;;;;5.57;5.07;;;19.90;59.90;;;;;;5110374;28;20442;-60
2022/06/05 05:18:56;;;;;;;5.73;5.23;;;20.10;59.40;;;;;;5109002;28;20532;-61
2022/06/05 05:21:25;;;;;;;6.13;5.50;;;20.20;58.60;;;;;;5099705;28;20457;-61
2022/06/05 05:23:52;;;;;;;5.93;5.43;;;20.20;58.50;;;;;;5098623;28;20466;-60
2022/06/05 05:26:22;;;;;;;6.23;5.73;;;20.30;58.30;;;;;;5113613;28;20529;-59
2022/06/05 05:28:50;;;;;;;6.50;5.90;;;20.40;57.60;;;;;;5107855;27;20565;-60
2022/06/05 05:31:19;;;;;;;6.07;5.47;;;20.40;57.30;;;;;;5101621;28;20888;-63
2022/06/05 05:33:49;;;;;;;6.50;5.60;;;20.40;57.50;;;;;;5105046;28;20474;-61
2022/06/05 05:36:19;;;;;;;6.80;6.10;;;20.50;57.30;;;;;;5116204;28;20499;-60
2022/06/05 05:44:13;;;;;;;6.97;6.40;;;20.90;55.90;;;;;;5100964;28;20448;-61
2022/06/05 05:46:41;;;;;;;8.30;6.03;;;20.90;55.60;;;;;;5102348;28;20544;-61
2022/06/05 05:49:08;;;;;;;6.13;5.63;;;20.80;55.50;;;;;;5103836;28;20486;-60
2022/06/05 05:51:37;;;;;;;6.60;5.70;;;20.70;55.70;;;;;;5105059;27;20493;-62
2022/06/05 05:54:06;;;;;;;6.00;5.47;;;20.70;56.00;;;;;;5103669;28;20438;-59
2022/06/05 05:56:34;;;;;;;6.10;5.50;;;20.70;55.90;;;;;;5108430;28;20884;-61
2022/06/05 05:59:01;;;;;;;5.87;5.40;;;20.80;56.00;;;;;;5095384;28;20571;-59
2022/06/05 06:01:29;;;;;;;6.60;6.00;;;21.00;55.60;;;;;;5094945;28;20530;-60
2022/06/05 06:03:56;;;;;;;5.73;5.23;;;21.10;55.30;;;;;;5094875;28;20985;-60
2022/06/05 06:06:26;;;;;;;8.47;5.90;;;21.10;55.20;;;;;;5097922;28;20458;-61
2022/06/05 06:08:55;;;;;;;6.13;5.53;;;20.90;55.40;;;;;;5121471;28;20477;-61
2022/06/05 06:11:23;;;;;;;6.10;5.40;;;20.80;55.60;;;;;;5105242;27;20623;-60
2022/06/05 06:13:50;;;;;;;6.57;5.43;;;20.70;55.70;;;;;;5102102;28;20469;-61
2022/06/05 06:16:18;;;;;;;6.50;5.90;;;20.70;56.00;;;;;;5125436;28;20453;-62
2022/06/05 06:18:46;;;;;;;6.60;6.00;;;20.60;56.20;;;;;;5115653;28;20519;-61
2022/06/05 06:21:13;;;;;;;5.53;5.03;;;20.50;56.50;;;;;;5111366;28;20462;-61
2022/06/05 06:23:40;;;;;;;7.50;6.03;;;20.60;56.70;;;;;;5112528;28;20930;-61
2022/06/05 06:26:09;;;;;;;6.30;5.70;;;20.60;56.70;;;;;;5112863;28;20499;-61
2022/06/05 06:28:37;;;;;;;5.33;4.80;;;20.60;56.70;;;;;;5113706;28;20482;-60
2022/06/05 06:31:05;;;;;;;6.67;5.97;;;20.60;56.70;;;;;;5108557;28;20446;-60
2022/06/05 06:33:33;;;;;;;6.00;5.40;;;20.70;56.70;;;;;;5106961;28;20980;-61
2022/06/05 06:36:04;;;;;;;5.53;5.00;;;20.70;56.70;;;;;;5106580;28;20478;-60
2022/06/05 06:38:32;;;;;;;7.03;5.60;;;20.80;56.50;;;;;;5104697;28;20457;-59
2022/06/05 06:41:01;;;;;;;6.47;5.87;;;20.90;56.50;;;;;;5102518;28;20804;-61
2022/06/05 06:43:30;;;;;;;6.63;6.10;;;20.90;56.50;;;;;;5120648;28;20544;-61
2022/06/05 06:45:57;;;;;;;7.50;6.80;;;21.00;56.40;;;;;;5124623;28;20448;-60
2022/06/05 06:48:24;;;;;;;7.03;6.53;;;21.10;56.30;;;;;;5123691;28;20460;-61
2022/06/05 06:50:53;;;;;;;6.90;6.20;;;21.10;56.10;;;;;;5118852;28;20519;-60
2022/06/05 06:53:21;;;;;;;6.40;5.90;;;21.00;56.20;;;;;;5118603;28;20511;-61
2022/06/05 06:55:48;;;;;;;6.73;6.03;;;21.00;56.40;;;;;;5109635;28;20491;-61
2022/06/05 06:58:16;;;;;;;7.13;5.30;;;21.00;56.60;;;;;;5124335;28;20495;-60
2022/06/05 07:00:45;;;;;;;7.10;6.30;;;21.10;56.60;;;;;;5121789;28;20454;-59
2022/06/05 07:03:12;;;;;;;6.33;5.73;;;21.10;56.60;;;;;;5117394;28;20438;-59
2022/06/05 07:05:40;;;;;;;7.00;6.27;;;21.20;56.80;;;;;;5119505;27;20854;-60
2022/06/05 07:08:10;;;;;;;6.77;6.20;;;21.20;56.70;;;;;;5125198;28;20474;-61
2022/06/05 07:10:38;;;;;;;6.73;6.07;;;21.20;56.70;;;;;;5108967;28;20483;-61
2022/06/05 07:13:06;;;;;;;7.23;6.53;;;21.10;56.80;;;;;;5106318;28;20448;-60
2022/06/05 07:15:35;;;;;;;6.97;6.30;;;21.10;57.10;;;;;;5098155;28;20450;-60
2022/06/05 07:18:05;;;;;;;6.80;6.30;;;21.00;57.30;;;;;;5099456;28;20922;-60
2022/06/05 07:20:34;;;;;;;7.13;6.50;;;21.00;57.50;;;;;;5094804;28;20444;-60
2022/06/05 07:23:02;;;;;;;7.97;5.83;;;21.10;57.60;;;;;;5108418;28;20485;-61
2022/06/05 07:25:30;;;;;;;7.77;6.27;;;21.10;57.60;;;;;;5114818;28;20457;-61
2022/06/05 07:27:57;;;;;;;7.20;6.50;;;21.20;58.10;;;;;;5114103;28;20510;-60
2022/06/05 07:30:25;;;;;;;7.33;6.63;;;21.40;57.40;;;;;;5102787;28;20482;-60
2022/06/05 07:32:53;;;;;;;7.23;6.53;;;21.50;57.30;;;;;;5103972;28;20463;-61
2022/06/05 07:35:22;;;;;;;6.47;5.87;;;21.70;57.10;;;;;;5110630;28;20464;-60
2022/06/05 07:37:50;;;;;;;6.93;6.23;;;21.80;56.80;;;;;;5113731;28;20458;-62
2022/06/05 07:40:17;;;;;;;7.60;6.73;;;21.90;56.60;;;;;;5097201;28;20538;-61
2022/06/05 07:42:45;;;;;;;7.30;6.70;;;21.90;56.50;;;;;;5113636;28;20549;-61
2022/06/05 07:45:15;;;;;;;7.20;6.50;;;21.90;56.50;;;;;;5112480;28;20976;-60
2022/06/05 07:47:43;;;;;;;9.77;6.40;;;22.00;56.60;;;;;;5113371;28;21141;-61
2022/06/05 07:50:12;;;;;;;6.43;5.83;;;22.10;56.50;;;;;;5095218;28;20520;-60
2022/06/05 07:55:26;;;;;;;6.83;6.23;;;22.30;55.90;;;;;;5093627;28;20437;-59
2022/06/05 07:57:53;;;;;;;6.80;6.10;;;22.40;55.80;;;;;;5109248;28;20465;-61
2022/06/05 08:00:21;;;;;;;6.70;6.10;;;22.40;55.80;;;;;;5124801;22;20533;-58
2022/06/05 08:02:49;;;;;;;7.30;6.37;;;22.40;55.80;;;;;;5092979;28;20437;-58
2022/06/05 08:05:16;;;;;;;6.97;6.27;;;22.50;55.70;;;;;;5092953;28;20440;-58
2022/06/05 08:07:45;;;;;;;7.27;6.67;;;22.50;55.60;;;;;;5094216;28;20488;-58
2022/06/05 08:10:12;;;;;;;6.17;5.57;;;22.50;55.40;;;;;;5092488;28;20876;-58
2022/06/05 08:12:40;;;;;;;7.00;6.27;;;22.50;55.40;;;;;;5092633;28;20451;-58
2022/06/05 08:15:12;;;;;;;6.53;5.93;;;22.60;55.40;;;;;;5092430;28;20476;-58
2022/06/05 08:17:39;;;;;;;8.30;5.90;;;22.70;55.20;;;;;;5092881;28;20438;-59
2022/06/05 08:20:09;;;;;;;6.83;6.13;;;22.70;55.20;;;;;;5092525;28;21057;-59
2022/06/05 08:22:37;;;;;;;7.53;5.60;;;22.80;55.10;;;;;;5092701;28;20492;-57
2022/06/05 08:25:07;;;;;;;7.70;5.80;;;22.90;55.00;;;;;;5092135;28;20444;-58
2022/06/05 08:27:34;;;;;;;7.00;6.40;;;23.00;54.80;;;;;;5092671;28;20500;-58
2022/06/05 08:30:01;;;;;;;6.87;6.20;;;23.10;54.60;;;;;;5092193;28;20516;-58
2022/06/05 08:32:29;;;;;;;7.10;6.20;;;23.20;54.40;;;;;;5092744;28;20438;-59
2022/06/05 08:34:57;;;;;;;6.70;6.10;;;23.30;54.30;;;;;;5092257;28;20458;-57
2022/06/05 08:43:25;;;;;;;5.70;5.03;;;23.40;53.70;;;;;;5092635;28;20406;-58
2022/06/05 08:46:05;;;;;;;5.93;5.40;;;23.50;53.70;;;;;;5085253;28;20457;-56
2022/06/05 08:48:37;;;;;;;6.27;5.77;;;23.60;53.50;;;;;;5092461;28;20430;-58
2022/06/05 08:51:18;;;;;;;6.70;5.57;;;23.70;53.30;;;;;;5092961;28;20570;-58
2022/06/05 08:53:51;;;;;;;5.97;5.37;;;23.80;52.90;;;;;;5092694;28;20517;-58
2022/06/05 08:56:29;;;;;;;7.33;6.00;;;23.90;52.60;;;;;;5095633;28;20513;-58
2022/06/05 08:59:01;;;;;;;5.90;5.30;;;24.10;52.20;;;;;;5096612;28;20427;-59
2022/06/05 09:01:37;;;;;;;6.50;5.77;;;24.30;52.00;;;;;;5096975;28;20474;-58
2022/06/05 09:04:17;;;;;;;7.20;6.60;;;24.50;51.50;;;;;;5096230;28;20428;-59
2022/06/05 09:06:49;;;;;;;6.23;5.60;;;24.70;51.10;;;;;;5096116;28;20466;-59
2022/06/05 09:09:20;;;;;;;6.27;5.70;;;24.70;50.90;;;;;;5095942;28;21017;-59
2022/06/05 09:11:52;;;;;;;5.73;4.97;;;24.80;50.60;;;;;;5095805;28;20557;-58
2022/06/05 09:14:29;;;;;;;5.57;5.10;;;24.80;50.40;;;;;;5095886;28;20595;-58
2022/06/05 09:17:03;;;;;;;5.73;5.23;;;24.90;50.20;;;;;;5096072;28;20422;-59
2022/06/05 09:19:31;;;;;;;5.77;5.17;;;25.00;50.10;;;;;;5095958;28;20479;-58
2022/06/05 09:22:06;;;;;;;6.33;5.40;;;25.00;49.90;;;;;;5095800;28;20552;-57
2022/06/05 09:24:46;;;;;;;6.00;5.43;;;25.00;49.80;;;;;;5096012;28;20426;-58
2022/06/05 09:27:28;;;;;;;5.23;4.83;;;24.90;49.70;;;;;;5095637;28;20445;-58
2022/06/05 09:30:02;;;;;;;6.43;5.50;;;24.80;49.80;;;;;;5095555;28;20509;-58
2022/06/05 09:32:55;;;;;;;5.60;5.10;;;24.70;49.80;;;;;;5096394;28;20426;-58
2022/06/05 09:35:27;;;;;;;5.57;5.10;;;24.60;49.90;;;;;;5096789;28;20466;-58
2022/06/05 09:38:00;;;;;;;5.67;5.10;;;24.70;49.80;;;;;;5096298;28;20483;-57
2022/06/05 09:40:31;;;;;;;6.73;6.10;;;24.80;49.60;;;;;;5096123;28;20965;-60
2022/06/05 09:43:23;;;;;;;6.77;5.67;;;24.90;49.30;;;;;;5095770;28;20495;-58
2022/06/05 09:46:09;;;;;;;6.33;5.50;;;25.00;49.00;;;;;;5095988;28;20477;-58
2022/06/05 09:48:49;;;;;;;7.47;5.33;;;25.00;49.00;;;;;;5095882;28;20794;-59
2022/06/05 09:51:18;;;;;;;5.63;4.53;;;25.00;49.10;;;;;;5095150;28;20541;-58
2022/06/05 09:53:55;;;;;;;6.60;4.93;;;25.00;49.20;;;;;;5095273;28;20852;-58
2022/06/05 09:56:34;;;;;;;5.60;5.23;;;25.10;49.20;;;;;;5095655;28;20423;-58
2022/06/05 09:59:18;;;;;;;5.40;4.80;;;25.20;48.90;;;;;;5095359;28;20456;-57
2022/06/05 10:01:51;;;;;;;5.60;5.10;;;25.20;48.60;;;;;;5095561;28;20482;-58
2022/06/05 10:04:21;;;;;;;6.20;5.60;;;25.10;48.90;;;;;;5094944;28;20450;-56
2022/06/05 10:06:53;;;;;;;6.17;5.60;;;25.10;49.00;;;;;;5094744;28;20862;-58
2022/06/05 10:09:24;;;;;;;6.03;5.30;;;25.20;49.00;;;;;;5095116;28;20430;-58
2022/06/05 10:11:57;;;;;;;8.30;5.63;;;25.30;48.80;;;;;;5094857;28;20539;-58
2022/06/05 10:14:36;;;;;;;5.50;5.00;;;25.40;48.30;;;;;;5094517;28;20898;-58
2022/06/05 10:17:21;;;;;;;5.90;5.27;;;25.40;48.00;;;;;;5094623;28;20456;-58
2022/06/05 10:20:25;;;;;;;5.73;5.23;;;25.50;47.80;;;;;;5095237;28;20887;-60
2022/06/05 10:22:58;;;;;;;5.67;5.17;;;25.70;47.80;;;;;;5094321;28;20442;-58
2022/06/05 10:25:33;;;;;;;6.00;5.30;;;25.70;47.40;;;;;;5094373;28;20568;-58
2022/06/05 10:28:03;;;;;;;5.43;4.93;;;25.80;47.40;;;;;;5094286;28;20467;-58
2022/06/05 10:30:36;;;;;;;5.87;5.37;;;25.70;47.20;;;;;;5094998;28;20539;-59
2022/06/05 10:33:13;;;;;;;5.17;4.73;;;25.70;47.40;;;;;;5094684;28;20423;-60
2022/06/05 10:35:49;;;;;;;5.40;5.00;;;25.70;47.50;;;;;;5095190;28;20461;-59
2022/06/05 10:38:31;;;;;;;5.20;4.70;;;25.90;47.30;;;;;;5095001;28;20468;-59
2022/06/05 10:41:03;;;;;;;5.90;5.33;;;26.00;47.00;;;;;;5094933;28;20462;-59
2022/06/05 10:43:33;;;;;;;5.33;4.93;;;26.10;46.80;;;;;;5095128;28;20415;-60
2022/06/05 10:46:04;;;;;;;5.80;5.23;;;26.20;46.60;;;;;;5094809;28;20448;-59
2022/06/05 10:48:46;;;;;;;5.33;4.93;;;26.20;46.30;;;;;;5094321;28;20484;-60
2022/06/05 10:51:23;;;;;;;5.80;5.40;;;26.30;46.30;;;;;;5094459;28;20550;-59
2022/06/05 10:53:56;;;;;;;5.63;5.23;;;26.40;45.90;;;;;;5094774;28;20431;-58
2022/06/05 10:56:34;;;;;;;6.03;5.43;;;26.50;45.50;;;;;;5094402;28;20429;-60
2022/06/05 10:59:13;;;;;;;5.73;5.27;;;26.50;45.40;;;;;;5094434;28;20491;-59
2022/06/05 11:01:57;;;;;;;5.87;5.37;;;26.50;45.30;;;;;;5094335;28;20569;-60
2022/06/05 11:04:39;;;;;;;5.53;5.03;;;26.50;45.10;;;;;;5094275;28;20898;-60
2022/06/05 11:07:19;;;;;;;6.70;5.10;;;26.50;45.00;;;;;;5094172;28;20513;-58
2022/06/05 11:09:51;;;;;;;7.33;4.97;;;26.50;44.90;;;;;;5094263;28;20430;-59
2022/06/05 11:15:17;;;;;;;6.10;5.60;;;26.80;44.40;;;;;;5094143;28;20405;-58
2022/06/05 11:17:56;;;;;;;6.00;5.43;;;27.00;43.90;;;;;;5093275;28;20418;-58
2022/06/05 11:20:26;;;;;;;5.53;4.93;;;27.20;43.60;;;;;;5093939;28;20836;-58
2022/06/05 11:22:57;;;;;;;5.70;4.77;;;27.40;43.20;;;;;;5094723;28;20846;-58
2022/06/05 11:25:28;;;;;;;6.07;5.47;;;27.50;42.80;;;;;;5094848;28;20522;-57
2022/06/05 11:28:08;;;;;;;4.93;4.40;;;27.60;42.50;;;;;;5094390;28;20518;-59
2022/06/05 11:30:44;;;;;;;5.20;4.80;;;27.70;42.50;;;;;;5093988;28;20474;-59
2022/06/05 11:33:20;;;;;;;5.40;4.90;;;27.90;42.20;;;;;;5094435;28;20520;-59
2022/06/05 11:36:12;;;;;;;5.50;5.00;;;28.10;42.00;;;;;;5093293;28;20946;-59
2022/06/05 11:38:52;;;;;;;5.83;5.30;;;28.30;41.70;;;;;;5093406;28;20427;-59
2022/06/05 11:41:26;;;;;;;6.50;5.77;;;28.50;41.40;;;;;;5093330;28;20465;-58
2022/06/05 11:44:15;;;;;;;5.67;5.17;;;28.60;41.00;;;;;;5093209;28;20451;-59
2022/06/05 11:46:52;;;;;;;6.27;4.83;;;28.80;40.80;;;;;;5093708;28;20509;-59
2022/06/05 11:49:31;;;;;;;6.13;5.00;;;28.70;40.50;;;;;;5093383;28;20533;-57
2022/06/05 11:52:09;;;;;;;5.37;4.97;;;28.60;40.60;;;;;;5093371;28;20572;-58
2022/06/05 11:54:44;;;;;;;5.10;4.70;;;28.60;40.80;;;;;;5093241;28;20484;-57
2022/06/05 11:57:18;;;;;;;8.07;5.67;;;28.70;40.70;;;;;;5093217;28;20982;-60
2022/06/05 11:59:50;;;;;;;5.30;4.80;;;29.10;40.40;;;;;;5093461;28;20426;-59
2022/06/05 12:02:40;;;;;;;5.43;4.80;;;29.50;39.60;;;;;;5093730;28;20427;-60
2022/06/05 12:05:16;;;;;;;5.10;4.80;;;29.60;39.00;;;;;;5093668;28;20967;-59
2022/06/05 12:07:48;;;;;;;5.73;4.70;;;29.40;38.90;;;;;;5093282;28;20444;-60
2022/06/05 12:10:22;;;;;;;5.20;4.80;;;29.40;39.10;;;;;;5092822;28;20565;-58
2022/06/05 12:12:56;;;;;;;6.00;5.50;;;29.20;39.20;;;;;;5093164;28;20425;-58
2022/06/05 12:15:28;;;;;;;5.80;5.20;;;28.90;39.50;;;;;;5093241;28;20800;-59
2022/06/05 12:18:01;;;;;;;5.73;5.23;;;28.60;40.10;;;;;;5092910;28;20876;-58
2022/06/05 12:20:36;;;;;;;5.80;5.30;;;28.60;40.40;;;;;;5092861;28;20918;-58
2022/06/05 12:23:16;;;;;;;5.23;4.50;;;28.70;40.50;;;;;;5092959;28;20525;-58
2022/06/05 12:25:51;;;;;;;5.17;4.80;;;28.70;40.50;;;;;;5092771;28;20436;-59
2022/06/05 12:28:22;;;;;;;5.17;4.77;;;28.70;40.50;;;;;;5092941;28;20479;-58
2022/06/05 12:30:54;;;;;;;5.67;5.17;;;28.40;40.70;;;;;;5095361;28;20578;-58
2022/06/05 12:33:27;;;;;;;5.00;4.60;;;28.30;41.10;;;;;;5097055;28;20454;-58
2022/06/05 12:36:04;;;;;;;5.67;5.20;;;28.20;41.30;;;;;;5096547;28;20495;-57
2022/06/05 12:38:38;;;;;;;6.77;6.10;;;28.10;41.50;;;;;;5096459;28;20426;-59
2022/06/05 12:41:15;;;;;;;5.90;5.47;;;28.10;41.60;;;;;;5096298;28;20508;-57
2022/06/05 12:44:01;;;;;;;9.37;5.80;;;28.00;41.70;;;;;;5096264;28;20790;-57
2022/06/05 12:46:35;;;;;;;5.63;5.10;;;27.90;41.90;;;;;;5096689;28;20454;-57
2022/06/05 12:49:15;;;;;;;8.80;6.10;;;27.90;42.10;;;;;;5096451;28;20422;-58
2022/06/05 12:51:51;;;;;;;5.60;5.10;;;28.00;42.10;;;;;;5096395;28;20489;-57
2022/06/05 12:54:36;;;;;;;5.40;5.00;;;28.10;42.10;;;;;;5096544;28;20461;-57
2022/06/05 12:57:13;;;;;;;5.37;5.00;;;28.20;41.90;;;;;;5096418;28;20422;-57
2022/06/05 12:59:46;;;;;;;5.10;4.70;;;28.40;41.80;;;;;;5096424;28;20497;-58
2022/06/05 13:02:25;;;;;;;6.43;5.93;;;28.50;41.20;;;;;;5096275;28;20454;-58
2022/06/05 13:05:00;;;;;;;5.80;5.30;;;28.30;41.30;;;;;;5096406;28;20495;-58
2022/06/05 13:07:41;;;;;;;5.67;5.23;;;28.30;41.50;;;;;;5096013;28;20969;-57
2022/06/05 13:10:23;;;;;;;5.63;5.23;;;28.30;41.40;;;;;;5095778;28;20461;-56
2022/06/05 13:12:58;;;;;;;6.07;5.57;;;28.50;41.40;;;;;;5095633;28;20423;-57
2022/06/05 13:15:29;;;;;;;5.70;5.27;;;28.60;41.20;;;;;;5095970;28;20530;-58
2022/06/05 13:18:03;;;;;;;8.50;4.83;;;28.90;41.00;;;;;;5095558;28;20890;-58
2022/06/05 13:20:36;;;;;;;14.53;5.03;;;29.10;40.60;;;;;;5095611;28;20987;-58
2022/06/05 13:23:18;;;;;;;6.40;5.47;;;29.30;40.30;;;;;;5095445;28;20449;-58
2022/06/05 13:25:58;;;;;;;4.73;4.43;;;29.40;40.00;;;;;;5095618;28;20430;-58
2022/06/05 13:28:40;;;;;;;5.20;4.80;;;29.40;39.80;;;;;;5095301;28;20426;-57
2022/06/05 13:31:17;;;;;;;6.13;5.63;;;29.20;39.40;;;;;;5095378;28;20539;-58
2022/06/05 13:33:50;;;;;;;5.07;4.73;;;29.10;39.70;;;;;;5095296;28;20521;-58